Terminal Aerodrome Forecast
Issued by NWS Cleveland, OH

Home | Current Version | Previous Version | Text Only | Print | Product List | Glossary Off
Versions: 1 2 3 4 5 6 7 8 9 10 11 12 13 14 15 16 17 18 19

623
FTUS41 KCLE 260826 AAC
TAFERI
TAF AMD
KERI 260826Z 2608/2706 VRB06KT 5SM -RA BR BKN006 OVC070
      TEMPO 2608/2610 2SM -TSRA BR SCT006CB OVC050
     FM261100 32009KT 5SM BR SCT008 OVC080
      TEMPO 2611/2615 BKN008
     FM261500 03014G20KT 6SM BR OVC010
     FM270300 04010KT P6SM BKN020=

USA.gov is the U.S. government's official web portal to all federal, state and local government web resources and services.